createdAt,value
2018-05-13T00:00:52.669Z,16.60
2018-05-13T00:05:56.285Z,16.60
2018-05-13T00:10:59.414Z,16.60
2018-05-13T00:16:02.510Z,16.50
2018-05-13T00:21:06.407Z,16.50
2018-05-13T00:26:10.277Z,16.40
2018-05-13T00:31:14.554Z,16.30
2018-05-13T00:36:18.901Z,16.30
2018-05-13T00:41:22.754Z,16.20
2018-05-13T00:46:25.827Z,16.10
2018-05-13T00:51:29.674Z,16.30
2018-05-13T00:56:32.757Z,16.60
2018-05-13T01:06:41.051Z,16.80
2018-05-13T01:11:44.141Z,16.80
2018-05-13T01:21:51.766Z,16.70
2018-05-13T01:26:56.054Z,16.70
2018-05-13T01:31:59.238Z,16.80
2018-05-13T01:37:02.799Z,16.80
2018-05-13T01:42:05.910Z,16.80
2018-05-13T01:47:09.031Z,16.90
2018-05-13T01:57:17.330Z,16.60
2018-05-13T02:07:25.997Z,16.10
2018-05-13T02:12:29.897Z,16.00
2018-05-13T02:17:34.586Z,16.10
2018-05-13T02:22:37.769Z,16.20
2018-05-13T02:27:40.939Z,16.20
2018-05-13T02:32:44.129Z,16.20
2018-05-13T02:42:52.499Z,16.00
2018-05-13T02:53:00.204Z,16.00
2018-05-13T02:58:03.728Z,16.00
2018-05-13T03:03:07.572Z,16.00
2018-05-13T03:08:10.759Z,16.10
2018-05-13T03:13:15.017Z,16.10
2018-05-13T03:18:18.105Z,16.10
2018-05-13T03:23:21.957Z,16.20
2018-05-13T03:28:25.030Z,16.10
2018-05-13T03:33:28.906Z,16.10
2018-05-13T03:38:32.016Z,16.10
2018-05-13T03:43:35.090Z,16.10
2018-05-13T03:48:38.941Z,16.10
2018-05-13T03:53:43.510Z,16.00
2018-05-13T03:58:48.326Z,16.00
2018-05-13T04:03:52.111Z,15.90
2018-05-13T04:09:13.307Z,15.90
2018-05-13T04:14:35.272Z,15.90
2018-05-13T04:19:38.745Z,15.80
2018-05-13T04:24:42.718Z,15.90
2018-05-13T04:29:45.819Z,15.80
2018-05-13T04:34:48.992Z,15.80
2018-05-13T04:39:52.599Z,15.80
2018-05-13T04:44:56.087Z,15.90
2018-05-13T04:50:00.337Z,16.10
2018-05-13T04:55:03.454Z,16.10
2018-05-13T05:05:12.259Z,16.40
2018-05-13T05:10:15.429Z,16.60
2018-05-13T05:15:19.287Z,16.70
2018-05-13T05:20:22.374Z,16.80
2018-05-13T05:25:25.455Z,16.90
2018-05-13T05:30:29.354Z,16.90
2018-05-13T05:35:32.837Z,16.80
2018-05-13T05:45:40.343Z,17.10
2018-05-13T05:50:44.240Z,17.20
2018-05-13T05:55:48.114Z,17.40
2018-05-13T06:00:51.202Z,17.50
2018-05-13T06:05:55.043Z,17.60
2018-05-13T06:10:58.132Z,17.60
2018-05-13T06:16:01.599Z,17.60
2018-05-13T06:21:05.071Z,17.70
2018-05-13T06:26:08.918Z,17.80
2018-05-13T06:31:13.514Z,17.80
2018-05-13T06:36:17.360Z,17.90
2018-05-13T06:46:25.683Z,17.90
2018-05-13T06:51:28.823Z,17.90
2018-05-13T06:56:31.855Z,17.90
2018-05-13T07:06:40.887Z,17.80
2018-05-13T07:11:43.961Z,17.70
2018-05-13T07:16:47.046Z,17.70
2018-05-13T07:21:51.314Z,17.50
2018-05-13T07:26:55.167Z,17.50
2018-05-13T07:31:58.256Z,17.50
2018-05-13T07:42:06.613Z,17.30
2018-05-13T07:52:14.918Z,17.20
2018-05-13T08:02:22.855Z,17.10
2018-05-13T08:07:25.954Z,17.10
2018-05-13T08:12:29.818Z,17.00
2018-05-13T08:17:34.811Z,17.00
2018-05-13T08:32:47.176Z,16.70
2018-05-13T08:37:51.037Z,16.60
2018-05-13T08:42:54.204Z,16.50
2018-05-13T08:47:58.074Z,16.40
2018-05-13T08:53:01.923Z,16.30
2018-05-13T08:58:05.027Z,16.20
2018-05-13T09:03:08.107Z,16.40
2018-05-13T09:08:11.985Z,16.30
2018-05-13T09:13:15.118Z,16.30
2018-05-13T09:23:23.031Z,16.20
2018-05-13T09:28:26.124Z,16.20
2018-05-13T09:33:29.599Z,16.10
2018-05-13T09:38:33.079Z,16.10
2018-05-13T09:43:36.165Z,16.00
2018-05-13T09:48:39.241Z,15.90
2018-05-13T09:53:42.330Z,15.90
2018-05-13T10:03:52.663Z,15.90
2018-05-13T10:08:55.754Z,15.90
2018-05-13T10:19:04.053Z,15.80
2018-05-13T10:24:07.899Z,15.60
2018-05-13T10:29:10.987Z,15.40
2018-05-13T10:34:14.078Z,15.40
2018-05-13T10:39:17.569Z,15.30
2018-05-13T10:44:21.802Z,15.30
2018-05-13T10:49:25.428Z,15.30
2018-05-13T10:54:29.274Z,15.30
2018-05-13T10:59:32.762Z,15.30
2018-05-13T11:04:36.619Z,15.20
2018-05-13T11:09:40.117Z,15.20
2018-05-13T11:14:43.608Z,15.20
2018-05-13T11:19:47.458Z,15.20
2018-05-13T11:24:50.547Z,15.10
2018-05-13T11:34:58.488Z,15.20
2018-05-13T11:40:01.571Z,15.10
2018-05-13T11:45:04.658Z,15.10
2018-05-13T11:50:08.531Z,15.10
2018-05-13T11:55:11.704Z,15.10
2018-05-13T12:00:14.877Z,15.10
2018-05-13T12:05:19.471Z,15.10
2018-05-13T12:10:23.536Z,15.00
2018-05-13T12:15:27.812Z,15.10
2018-05-13T12:20:31.664Z,15.10
2018-05-13T12:25:34.768Z,15.20
2018-05-13T12:30:37.850Z,15.20
2018-05-13T12:35:40.936Z,15.20
2018-05-13T12:40:44.033Z,15.20
2018-05-13T12:45:47.892Z,15.20
2018-05-13T12:50:52.166Z,15.20
2018-05-13T13:01:00.210Z,15.10
2018-05-13T13:06:03.298Z,15.10
2018-05-13T13:11:06.379Z,15.10
2018-05-13T13:16:10.615Z,15.10
2018-05-13T13:21:14.475Z,15.10
2018-05-13T13:26:17.573Z,15.10
2018-05-13T13:31:21.310Z,15.10
2018-05-13T13:36:25.711Z,15.10
2018-05-13T13:41:28.801Z,15.00
2018-05-13T13:51:37.086Z,15.10
2018-05-13T13:56:40.934Z,15.10
2018-05-13T14:01:44.034Z,15.10
2018-05-13T14:06:47.946Z,15.10
2018-05-13T14:11:51.860Z,15.10
2018-05-13T14:16:55.814Z,15.10
2018-05-13T14:21:59.705Z,15.10
2018-05-13T14:32:07.614Z,15.10
2018-05-13T14:37:10.707Z,15.10
2018-05-13T14:47:18.817Z,15.20
2018-05-13T14:52:22.344Z,15.30
2018-05-13T14:57:26.588Z,15.30
2018-05-13T15:07:34.110Z,15.40
2018-05-13T15:12:37.590Z,15.30
2018-05-13T15:17:40.690Z,15.30
2018-05-13T15:22:43.774Z,15.30
2018-05-13T15:27:46.859Z,15.40
2018-05-13T15:32:50.336Z,15.40
2018-05-13T15:37:53.814Z,15.40
2018-05-13T15:42:57.436Z,15.40
2018-05-13T15:48:01.916Z,15.40
2018-05-13T15:53:05.013Z,15.40
2018-05-13T15:58:08.114Z,15.40
2018-05-13T16:03:11.211Z,15.40
2018-05-13T16:08:14.686Z,15.50
2018-05-13T16:13:18.915Z,15.40
2018-05-13T16:18:22.394Z,15.40
2018-05-13T16:23:25.498Z,15.40
2018-05-13T16:28:29.352Z,15.40
2018-05-13T16:33:32.455Z,15.40
2018-05-13T16:38:35.600Z,15.30
2018-05-13T16:43:38.624Z,15.30
2018-05-13T16:48:43.215Z,15.30
2018-05-13T16:53:46.706Z,15.20
2018-05-13T16:58:50.546Z,15.20
2018-05-13T17:03:53.638Z,15.20
2018-05-13T17:08:56.718Z,15.10
2018-05-13T17:13:59.807Z,15.20
2018-05-13T17:19:03.671Z,15.10
2018-05-13T17:24:07.530Z,15.10
2018-05-13T17:29:10.610Z,15.10
2018-05-13T17:34:14.534Z,15.10
2018-05-13T17:39:17.561Z,15.10
2018-05-13T17:49:26.594Z,15.10
2018-05-13T17:54:31.184Z,15.10
2018-05-13T17:59:34.666Z,14.90
2018-05-13T18:09:42.586Z,15.00
2018-05-13T18:14:46.822Z,15.00
2018-05-13T18:19:50.678Z,15.00
2018-05-13T18:24:53.913Z,14.90
2018-05-13T18:29:56.897Z,15.00
2018-05-13T18:35:01.123Z,15.00
2018-05-13T18:40:05.338Z,14.90
2018-05-13T18:45:08.839Z,14.90
2018-05-13T18:55:16.750Z,14.90
2018-05-13T19:10:28.715Z,14.80
2018-05-13T19:15:32.953Z,14.80
2018-05-13T19:25:40.471Z,14.90
2018-05-13T19:30:43.955Z,14.80
2018-05-13T19:35:47.047Z,14.90
2018-05-13T19:40:50.151Z,14.80
2018-05-13T19:45:53.226Z,14.80
2018-05-13T19:56:02.271Z,14.80
2018-05-13T20:01:06.043Z,14.70
2018-05-13T20:16:18.823Z,14.60
2018-05-13T20:21:22.085Z,14.60
2018-05-13T20:26:25.250Z,14.50
2018-05-13T20:31:30.776Z,14.50
2018-05-13T20:36:33.966Z,14.50
2018-05-13T20:41:37.875Z,14.50
2018-05-13T20:46:41.082Z,14.50
2018-05-13T20:51:45.981Z,14.50
2018-05-13T20:56:49.237Z,14.50
2018-05-13T21:01:52.479Z,14.50
2018-05-13T21:06:56.146Z,14.50
2018-05-13T21:17:05.560Z,14.40
2018-05-13T21:22:09.633Z,14.40
2018-05-13T21:27:12.783Z,14.40
2018-05-13T21:32:17.166Z,14.40
2018-05-13T21:37:20.316Z,14.40
2018-05-13T21:47:28.420Z,14.30
2018-05-13T21:52:32.200Z,14.30
2018-05-13T21:57:37.926Z,14.30
2018-05-13T22:02:41.153Z,14.20
2018-05-13T22:07:44.726Z,14.20
2018-05-13T22:12:47.951Z,14.10
2018-05-13T22:17:51.984Z,14.10
2018-05-13T22:23:03.119Z,14.00
2018-05-13T22:28:07.156Z,14.00
2018-05-13T22:33:10.396Z,13.90
2018-05-13T22:38:13.628Z,13.90
2018-05-13T22:43:16.847Z,13.90
2018-05-13T22:48:21.931Z,13.80
2018-05-13T22:53:25.914Z,13.80
2018-05-13T22:58:29.275Z,13.80
2018-05-13T23:08:39.005Z,13.80
2018-05-13T23:13:43.780Z,13.80
2018-05-13T23:18:47.850Z,13.80
2018-05-13T23:28:56.607Z,13.80
2018-05-13T23:34:00.579Z,13.80
2018-05-13T23:39:03.902Z,13.80
2018-05-13T23:44:08.139Z,13.80
2018-05-13T23:49:12.213Z,13.80
2018-05-13T23:54:21.815Z,13.90
2018-05-13T23:59:25.220Z,13.80
